sensor_id;sensor_type;location;lat;lon;timestamp;pressure;altitude;pressure_sealevel;temperature;humidity
24858;BME280;12935;50.782;6.074;2023-02-11T00:01:31;101379.13;;;6.04;100.00
24858;BME280;12935;50.782;6.074;2023-02-11T00:03:58;101380.75;;;6.05;100.00
24858;BME280;12935;50.782;6.074;2023-02-11T00:06:25;101370.19;;;5.95;100.00
24858;BME280;12935;50.782;6.074;2023-02-11T00:08:52;101361.25;;;6.03;100.00
24858;BME280;12935;50.782;6.074;2023-02-11T00:11:18;101365.00;;;5.85;100.00
24858;BME280;12935;50.782;6.074;2023-02-11T00:13:44;101364.69;;;5.78;100.00
24858;BME280;12935;50.782;6.074;2023-02-11T00:16:13;101359.28;;;5.78;100.00
24858;BME280;12935;50.782;6.074;2023-02-11T00:18:39;101350.97;;;5.83;100.00
24858;BME280;12935;50.782;6.074;2023-02-11T00:21:24;101357.56;;;5.90;100.00
24858;BME280;12935;50.782;6.074;2023-02-11T00:23:50;101362.13;;;5.73;100.00
24858;BME280;12935;50.782;6.074;2023-02-11T00:26:22;101370.13;;;5.78;100.00
24858;BME280;12935;50.782;6.074;2023-02-11T00:28:48;101354.91;;;5.68;100.00
24858;BME280;12935;50.782;6.074;2023-02-11T00:31:16;101360.81;;;5.61;100.00
24858;BME280;12935;50.782;6.074;2023-02-11T00:33:42;101345.97;;;5.59;100.00
24858;BME280;12935;50.782;6.074;2023-02-11T00:36:11;101357.50;;;5.64;100.00
24858;BME280;12935;50.782;6.074;2023-02-11T00:38:37;101353.00;;;5.69;100.00
24858;BME280;12935;50.782;6.074;2023-02-11T00:41:03;101346.84;;;5.37;100.00
24858;BME280;12935;50.782;6.074;2023-02-11T00:43:28;101346.09;;;5.45;100.00
24858;BME280;12935;50.782;6.074;2023-02-11T00:45:53;101335.44;;;5.57;100.00
24858;BME280;12935;50.782;6.074;2023-02-11T00:48:18;101327.59;;;5.47;100.00
24858;BME280;12935;50.782;6.074;2023-02-11T00:50:44;101313.19;;;5.38;100.00
24858;BME280;12935;50.782;6.074;2023-02-11T00:53:09;101321.50;;;5.33;100.00
24858;BME280;12935;50.782;6.074;2023-02-11T00:55:35;101309.88;;;5.41;100.00
24858;BME280;12935;50.782;6.074;2023-02-11T00:58:00;101309.38;;;5.31;100.00
24858;BME280;12935;50.782;6.074;2023-02-11T01:00:26;101320.22;;;5.39;100.00
24858;BME280;12935;50.782;6.074;2023-02-11T01:02:52;101318.97;;;5.45;100.00
24858;BME280;12935;50.782;6.074;2023-02-11T01:05:19;101315.78;;;5.43;100.00
24858;BME280;12935;50.782;6.074;2023-02-11T01:07:45;101311.16;;;5.44;100.00
24858;BME280;12935;50.782;6.074;2023-02-11T01:10:10;101323.72;;;5.31;100.00
24858;BME280;12935;50.782;6.074;2023-02-11T01:12:36;101311.41;;;5.25;100.00
24858;BME280;12935;50.782;6.074;2023-02-11T01:15:02;101301.84;;;5.27;100.00
24858;BME280;12935;50.782;6.074;2023-02-11T01:17:27;101317.03;;;5.37;100.00
24858;BME280;12935;50.782;6.074;2023-02-11T01:19:53;101312.34;;;5.20;100.00
24858;BME280;12935;50.782;6.074;2023-02-11T01:22:18;101317.25;;;5.10;100.00
24858;BME280;12935;50.782;6.074;2023-02-11T01:24:44;101335.41;;;5.09;100.00
24858;BME280;12935;50.782;6.074;2023-02-11T01:27:09;101341.53;;;5.23;100.00
24858;BME280;12935;50.782;6.074;2023-02-11T01:29:34;101337.22;;;5.22;100.00
24858;BME280;12935;50.782;6.074;2023-02-11T01:32:00;101341.94;;;5.08;100.00
24858;BME280;12935;50.782;6.074;2023-02-11T01:34:25;101339.22;;;5.08;100.00
24858;BME280;12935;50.782;6.074;2023-02-11T01:36:55;101347.66;;;5.07;100.00
24858;BME280;12935;50.782;6.074;2023-02-11T01:39:21;101358.28;;;5.25;100.00
24858;BME280;12935;50.782;6.074;2023-02-11T01:41:46;101355.66;;;5.12;100.00
24858;BME280;12935;50.782;6.074;2023-02-11T01:46:53;101362.38;;;5.14;100.00
24858;BME280;12935;50.782;6.074;2023-02-11T01:49:24;101357.28;;;5.21;100.00
24858;BME280;12935;50.782;6.074;2023-02-11T01:52:09;101358.09;;;5.22;100.00
24858;BME280;12935;50.782;6.074;2023-02-11T01:54:41;101357.28;;;5.21;100.00
24858;BME280;12935;50.782;6.074;2023-02-11T01:57:28;101342.63;;;5.14;100.00
24858;BME280;12935;50.782;6.074;2023-02-11T02:00:11;101341.53;;;5.23;100.00
24858;BME280;12935;50.782;6.074;2023-02-11T02:05:33;101337.50;;;5.12;100.00
24858;BME280;12935;50.782;6.074;2023-02-11T02:10:37;101349.03;;;5.18;100.00
24858;BME280;12935;50.782;6.074;2023-02-11T02:13:05;101343.81;;;5.30;100.00
24858;BME280;12935;50.782;6.074;2023-02-11T02:15:35;101350.16;;;5.25;100.00
24858;BME280;12935;50.782;6.074;2023-02-11T02:29:39;101353.34;;;5.27;100.00
24858;BME280;12935;50.782;6.074;2023-02-11T02:34:34;101339.78;;;5.19;100.00
24858;BME280;12935;50.782;6.074;2023-02-11T02:39:58;101335.88;;;5.42;100.00
24858;BME280;12935;50.782;6.074;2023-02-11T02:42:27;101340.72;;;5.23;100.00
24858;BME280;12935;50.782;6.074;2023-02-11T02:44:52;101347.25;;;5.22;100.00
24858;BME280;12935;50.782;6.074;2023-02-11T02:47:19;101349.66;;;5.23;100.00
24858;BME280;12935;50.782;6.074;2023-02-11T02:49:45;101351.56;;;5.23;100.00
24858;BME280;12935;50.782;6.074;2023-02-11T02:52:40;101341.09;;;5.30;100.00
24858;BME280;12935;50.782;6.074;2023-02-11T02:58:29;101345.66;;;5.21;100.00
24858;BME280;12935;50.782;6.074;2023-02-11T03:08:57;101336.66;;;5.34;100.00
24858;BME280;12935;50.782;6.074;2023-02-11T03:11:25;101323.53;;;5.27;100.00
24858;BME280;12935;50.782;6.074;2023-02-11T03:13:53;101322.34;;;5.11;100.00
24858;BME280;12935;50.782;6.074;2023-02-11T03:16:23;101313.78;;;5.18;100.00
24858;BME280;12935;50.782;6.074;2023-02-11T03:18:55;101307.59;;;5.26;100.00
24858;BME280;12935;50.782;6.074;2023-02-11T03:21:24;101302.34;;;5.29;100.00
24858;BME280;12935;50.782;6.074;2023-02-11T03:23:53;101309.25;;;5.05;100.00
24858;BME280;12935;50.782;6.074;2023-02-11T03:31:36;101301.41;;;4.94;100.00
24858;BME280;12935;50.782;6.074;2023-02-11T03:34:10;101298.41;;;5.05;100.00
24858;BME280;12935;50.782;6.074;2023-02-11T03:36:45;101303.81;;;5.05;100.00
24858;BME280;12935;50.782;6.074;2023-02-11T03:39:17;101300.38;;;5.13;100.00
24858;BME280;12935;50.782;6.074;2023-02-11T03:41:44;101299.75;;;5.24;100.00
24858;BME280;12935;50.782;6.074;2023-02-11T03:44:13;101310.34;;;5.35;100.00
24858;BME280;12935;50.782;6.074;2023-02-11T03:46:42;101311.41;;;5.25;100.00
24858;BME280;12935;50.782;6.074;2023-02-11T03:49:12;101313.94;;;5.21;100.00
24858;BME280;12935;50.782;6.074;2023-02-11T03:51:39;101315.47;;;5.05;100.00
24858;BME280;12935;50.782;6.074;2023-02-11T03:54:09;101311.22;;;5.13;100.00
24858;BME280;12935;50.782;6.074;2023-02-11T03:56:42;101310.22;;;5.09;100.00
24858;BME280;12935;50.782;6.074;2023-02-11T03:59:11;101314.81;;;5.00;100.00
24858;BME280;12935;50.782;6.074;2023-02-11T04:01:36;101304.38;;;5.15;100.00
24858;BME280;12935;50.782;6.074;2023-02-11T04:04:01;101297.34;;;5.14;100.00
24858;BME280;12935;50.782;6.074;2023-02-11T04:06:27;101294.25;;;4.99;100.00
24858;BME280;12935;50.782;6.074;2023-02-11T04:08:52;101295.47;;;5.23;100.00
24858;BME280;12935;50.782;6.074;2023-02-11T04:11:17;101290.41;;;5.39;100.00
24858;BME280;12935;50.782;6.074;2023-02-11T04:13:43;101289.84;;;5.11;100.00
24858;BME280;12935;50.782;6.074;2023-02-11T04:16:08;101281.59;;;5.16;100.00
24858;BME280;12935;50.782;6.074;2023-02-11T04:18:33;101285.16;;;5.34;100.00
24858;BME280;12935;50.782;6.074;2023-02-11T04:20:58;101295.28;;;5.20;100.00
24858;BME280;12935;50.782;6.074;2023-02-11T04:23:24;101291.38;;;5.04;100.00
24858;BME280;12935;50.782;6.074;2023-02-11T04:25:49;101290.44;;;5.00;100.00
24858;BME280;12935;50.782;6.074;2023-02-11T04:28:14;101291.13;;;5.14;100.00
24858;BME280;12935;50.782;6.074;2023-02-11T04:30:40;101292.91;;;5.18;100.00
24858;BME280;12935;50.782;6.074;2023-02-11T04:33:05;101289.84;;;5.11;100.00
24858;BME280;12935;50.782;6.074;2023-02-11T04:35:30;101284.47;;;4.89;100.00
24858;BME280;12935;50.782;6.074;2023-02-11T04:37:55;101283.38;;;4.90;100.00
24858;BME280;12935;50.782;6.074;2023-02-11T04:40:21;101274.03;;;5.05;100.00
24858;BME280;12935;50.782;6.074;2023-02-11T04:42:46;101271.53;;;5.17;100.00
24858;BME280;12935;50.782;6.074;2023-02-11T04:45:12;101269.44;;;5.14;100.00
24858;BME280;12935;50.782;6.074;2023-02-11T04:47:37;101274.69;;;5.10;100.00
24858;BME280;12935;50.782;6.074;2023-02-11T04:50:03;101278.69;;;5.13;100.00
24858;BME280;12935;50.782;6.074;2023-02-11T04:52:28;101270.13;;;5.19;100.00
24858;BME280;12935;50.782;6.074;2023-02-11T04:54:54;101263.53;;;5.03;100.00
24858;BME280;12935;50.782;6.074;2023-02-11T04:57:19;101267.50;;;5.06;100.00
24858;BME280;12935;50.782;6.074;2023-02-11T04:59:44;101274.81;;;4.97;100.00
24858;BME280;12935;50.782;6.074;2023-02-11T05:02:09;101268.81;;;5.17;100.00
24858;BME280;12935;50.782;6.074;2023-02-11T05:04:35;101270.19;;;4.97;100.00
24858;BME280;12935;50.782;6.074;2023-02-11T05:07:00;101268.88;;;4.94;100.00
24858;BME280;12935;50.782;6.074;2023-02-11T05:09:25;101271.28;;;4.96;100.00
24858;BME280;12935;50.782;6.074;2023-02-11T05:11:50;101284.75;;;4.79;100.00
24858;BME280;12935;50.782;6.074;2023-02-11T05:14:16;101277.38;;;4.71;100.00
24858;BME280;12935;50.782;6.074;2023-02-11T05:16:41;101270.63;;;4.90;100.00
24858;BME280;12935;50.782;6.074;2023-02-11T05:19:06;101270.63;;;4.90;100.00
24858;BME280;12935;50.782;6.074;2023-02-11T05:21:32;101269.50;;;4.91;100.00
24858;BME280;12935;50.782;6.074;2023-02-11T05:23:57;101260.44;;;4.87;100.00
24858;BME280;12935;50.782;6.074;2023-02-11T05:26:23;101265.88;;;4.96;100.00
24858;BME280;12935;50.782;6.074;2023-02-11T05:28:48;101255.47;;;4.89;100.00
24858;BME280;12935;50.782;6.074;2023-02-11T05:31:13;101251.34;;;4.92;100.00
24858;BME280;12935;50.782;6.074;2023-02-11T05:33:39;101250.72;;;4.86;100.00
24858;BME280;12935;50.782;6.074;2023-02-11T05:36:07;101247.03;;;4.91;100.00
24858;BME280;12935;50.782;6.074;2023-02-11T05:38:33;101247.19;;;4.86;100.00
24858;BME280;12935;50.782;6.074;2023-02-11T05:40:59;101245.19;;;5.00;100.00
24858;BME280;12935;50.782;6.074;2023-02-11T05:43:24;101242.16;;;5.02;100.00
24858;BME280;12935;50.782;6.074;2023-02-11T05:45:50;101231.59;;;4.91;100.00
24858;BME280;12935;50.782;6.074;2023-02-11T05:48:15;101247.31;;;4.81;100.00
24858;BME280;12935;50.782;6.074;2023-02-11T05:50:41;101244.69;;;4.98;100.00
24858;BME280;12935;50.782;6.074;2023-02-11T05:53:06;101245.19;;;5.09;100.00
24858;BME280;12935;50.782;6.074;2023-02-11T05:55:32;101245.06;;;5.14;100.00
24858;BME280;12935;50.782;6.074;2023-02-11T05:57:57;101251.91;;;5.20;100.00
24858;BME280;12935;50.782;6.074;2023-02-11T06:00:23;101243.66;;;5.25;100.00
24858;BME280;12935;50.782;6.074;2023-02-11T06:02:48;101236.75;;;5.10;100.00
24858;BME280;12935;50.782;6.074;2023-02-11T06:05:14;101233.13;;;5.15;100.00
24858;BME280;12935;50.782;6.074;2023-02-11T06:07:39;101235.34;;;5.13;100.00
24858;BME280;12935;50.782;6.074;2023-02-11T06:10:05;101237.75;;;5.23;100.00
24858;BME280;12935;50.782;6.074;2023-02-11T06:12:31;101229.63;;;5.23;100.00
24858;BME280;12935;50.782;6.074;2023-02-11T06:14:56;101234.34;;;5.09;100.00
24858;BME280;12935;50.782;6.074;2023-02-11T06:17:21;101239.59;;;5.05;100.00
24858;BME280;12935;50.782;6.074;2023-02-11T06:19:48;101242.97;;;5.02;100.00
24858;BME280;12935;50.782;6.074;2023-02-11T06:22:13;101237.44;;;5.16;100.00
24858;BME280;12935;50.782;6.074;2023-02-11T06:24:39;101237.53;;;5.02;100.00
24858;BME280;12935;50.782;6.074;2023-02-11T06:27:05;101239.44;;;5.02;100.00
24858;BME280;12935;50.782;6.074;2023-02-11T06:29:30;101238.06;;;5.21;100.00
24858;BME280;12935;50.782;6.074;2023-02-11T06:31:55;101234.09;;;5.19;100.00
24858;BME280;12935;50.782;6.074;2023-02-11T06:34:21;101231.34;;;5.10;100.00
24858;BME280;12935;50.782;6.074;2023-02-11T06:36:46;101246.13;;;5.04;100.00
24858;BME280;12935;50.782;6.074;2023-02-11T06:39:12;101240.38;;;4.97;100.00
24858;BME280;12935;50.782;6.074;2023-02-11T06:41:38;101256.63;;;4.97;100.00
24858;BME280;12935;50.782;6.074;2023-02-11T06:44:03;101265.09;;;5.04;100.00
24858;BME280;12935;50.782;6.074;2023-02-11T06:46:28;101259.53;;;5.01;100.00
24858;BME280;12935;50.782;6.074;2023-02-11T06:48:53;101248.25;;;5.16;100.00
24858;BME280;12935;50.782;6.074;2023-02-11T06:51:19;101250.16;;;5.15;100.00
24858;BME280;12935;50.782;6.074;2023-02-11T06:53:45;101255.91;;;5.14;100.00
24858;BME280;12935;50.782;6.074;2023-02-11T06:56:16;101257.50;;;5.15;100.00
24858;BME280;12935;50.782;6.074;2023-02-11T06:58:42;101254.94;;;5.10;100.00
24858;BME280;12935;50.782;6.074;2023-02-11T07:01:10;101258.78;;;5.17;100.00
24858;BME280;12935;50.782;6.074;2023-02-11T07:03:38;101273.50;;;5.34;100.00
24858;BME280;12935;50.782;6.074;2023-02-11T07:06:05;101268.34;;;5.15;100.00
24858;BME280;12935;50.782;6.074;2023-02-11T07:08:35;101273.03;;;5.32;100.00
24858;BME280;12935;50.782;6.074;2023-02-11T07:11:08;101275.28;;;5.47;100.00
24858;BME280;12935;50.782;6.074;2023-02-11T07:13:33;101277.41;;;5.10;100.00
24858;BME280;12935;50.782;6.074;2023-02-11T07:16:03;101280.53;;;5.04;100.00
24858;BME280;12935;50.782;6.074;2023-02-11T07:18:28;101275.50;;;5.11;100.00
24858;BME280;12935;50.782;6.074;2023-02-11T07:20:54;101281.03;;;5.06;100.00
24858;BME280;12935;50.782;6.074;2023-02-11T07:23:19;101280.09;;;5.10;100.00
24858;BME280;12935;50.782;6.074;2023-02-11T07:25:44;101283.31;;;5.12;100.00
24858;BME280;12935;50.782;6.074;2023-02-11T07:28:10;101290.19;;;5.18;100.00
24858;BME280;12935;50.782;6.074;2023-02-11T07:30:35;101292.72;;;5.15;100.00
24858;BME280;12935;50.782;6.074;2023-02-11T07:33:00;101294.91;;;5.04;100.00
24858;BME280;12935;50.782;6.074;2023-02-11T07:35:25;101295.63;;;5.27;100.00
24858;BME280;12935;50.782;6.074;2023-02-11T07:37:51;101300.69;;;5.20;100.00
24858;BME280;12935;50.782;6.074;2023-02-11T07:40:16;101293.34;;;5.12;100.00
24858;BME280;12935;50.782;6.074;2023-02-11T07:42:41;101287.09;;;5.03;100.00
24858;BME280;12935;50.782;6.074;2023-02-11T07:45:07;101288.00;;;5.29;100.00
24858;BME280;12935;50.782;6.074;2023-02-11T07:47:34;101293.53;;;5.15;100.00
24858;BME280;12935;50.782;6.074;2023-02-11T07:49:59;101293.22;;;5.17;100.00
24858;BME280;12935;50.782;6.074;2023-02-11T07:52:28;101291.03;;;5.36;100.00
24858;BME280;12935;50.782;6.074;2023-02-11T07:54:53;101306.03;;;5.34;100.00
24858;BME280;12935;50.782;6.074;2023-02-11T07:57:19;101297.53;;;5.18;100.00
24858;BME280;12935;50.782;6.074;2023-02-11T07:59:44;101306.47;;;5.27;100.00
24858;BME280;12935;50.782;6.074;2023-02-11T08:02:09;101305.69;;;5.26;100.00
24858;BME280;12935;50.782;6.074;2023-02-11T08:04:34;101309.63;;;5.20;100.00
24858;BME280;12935;50.782;6.074;2023-02-11T08:07:00;101308.75;;;5.34;100.00
24858;BME280;12935;50.782;6.074;2023-02-11T08:09:25;101312.31;;;5.12;100.00
24858;BME280;12935;50.782;6.074;2023-02-11T08:11:50;101318.53;;;5.12;100.00
24858;BME280;12935;50.782;6.074;2023-02-11T08:14:15;101326.16;;;5.10;100.00
24858;BME280;12935;50.782;6.074;2023-02-11T08:16:41;101330.78;;;5.10;100.00
24858;BME280;12935;50.782;6.074;2023-02-11T08:19:10;101329.75;;;5.19;100.00
24858;BME280;12935;50.782;6.074;2023-02-11T08:21:37;101319.16;;;5.09;100.00
24858;BME280;12935;50.782;6.074;2023-02-11T08:24:03;101320.88;;;5.05;100.00
24858;BME280;12935;50.782;6.074;2023-02-11T08:26:30;101321.75;;;5.14;100.00
24858;BME280;12935;50.782;6.074;2023-02-11T08:28:57;101331.97;;;5.26;100.00
24858;BME280;12935;50.782;6.074;2023-02-11T08:31:29;101342.13;;;5.12;100.00
24858;BME280;12935;50.782;6.074;2023-02-11T08:33:54;101343.94;;;5.25;100.00
24858;BME280;12935;50.782;6.074;2023-02-11T08:36:25;101353.47;;;5.22;100.00
24858;BME280;12935;50.782;6.074;2023-02-11T08:38:53;101353.56;;;5.40;100.00
24858;BME280;12935;50.782;6.074;2023-02-11T08:41:18;101354.28;;;5.23;100.00
24858;BME280;12935;50.782;6.074;2023-02-11T08:43:44;101354.13;;;5.19;100.00
24858;BME280;12935;50.782;6.074;2023-02-11T08:46:15;101351.41;;;5.19;100.00
24858;BME280;12935;50.782;6.074;2023-02-11T08:48:40;101359.38;;;5.24;100.00
24858;BME280;12935;50.782;6.074;2023-02-11T08:51:12;101362.97;;;5.34;100.00
24858;BME280;12935;50.782;6.074;2023-02-11T08:53:38;101364.22;;;5.36;100.00
24858;BME280;12935;50.782;6.074;2023-02-11T08:56:03;101359.06;;;5.17;100.00
24858;BME280;12935;50.782;6.074;2023-02-11T08:58:29;101364.28;;;5.14;100.00
24858;BME280;12935;50.782;6.074;2023-02-11T09:00:54;101361.84;;;5.35;100.00
24858;BME280;12935;50.782;6.074;2023-02-11T09:03:19;101354.66;;;5.39;100.00
24858;BME280;12935;50.782;6.074;2023-02-11T09:05:46;101354.03;;;5.33;100.00
24858;BME280;12935;50.782;6.074;2023-02-11T09:08:12;101370.31;;;5.42;100.00
24858;BME280;12935;50.782;6.074;2023-02-11T09:10:38;101362.97;;;5.34;100.00
24858;BME280;12935;50.782;6.074;2023-02-11T09:13:04;101369.50;;;5.33;100.00
24858;BME280;12935;50.782;6.074;2023-02-11T09:15:29;101363.41;;;5.36;100.00
24858;BME280;12935;50.782;6.074;2023-02-11T09:17:55;101372.03;;;5.38;100.00
24858;BME280;12935;50.782;6.074;2023-02-11T09:20:21;101370.09;;;5.29;100.00
24858;BME280;12935;50.782;6.074;2023-02-11T09:22:46;101373.63;;;5.39;100.00
24858;BME280;12935;50.782;6.074;2023-02-11T09:25:12;101379.06;;;5.39;100.00
24858;BME280;12935;50.782;6.074;2023-02-11T09:27:37;101372.84;;;5.38;100.00
24858;BME280;12935;50.782;6.074;2023-02-11T09:30:03;101379.44;;;5.46;100.00
24858;BME280;12935;50.782;6.074;2023-02-11T09:32:29;101380.06;;;5.51;100.00
24858;BME280;12935;50.782;6.074;2023-02-11T09:34:54;101371.38;;;5.72;100.00
24858;BME280;12935;50.782;6.074;2023-02-11T09:37:19;101382.03;;;5.68;100.00
24858;BME280;12935;50.782;6.074;2023-02-11T09:39:44;101374.41;;;5.70;100.00
24858;BME280;12935;50.782;6.074;2023-02-11T09:42:39;101384.13;;;5.71;100.00
24858;BME280;12935;50.782;6.074;2023-02-11T09:45:12;101392.13;;;5.76;100.00
24858;BME280;12935;50.782;6.074;2023-02-11T09:47:50;101393.88;;;5.72;100.00
24858;BME280;12935;50.782;6.074;2023-02-11T09:50:22;101393.59;;;5.82;100.00
24858;BME280;12935;50.782;6.074;2023-02-11T09:53:04;101380.34;;;5.81;100.00
24858;BME280;12935;50.782;6.074;2023-02-11T09:55:51;101384.56;;;5.95;100.00
24858;BME280;12935;50.782;6.074;2023-02-11T09:58:31;101395.56;;;5.99;100.00
24858;BME280;12935;50.782;6.074;2023-02-11T10:04:06;101402.09;;;5.89;100.00
24858;BME280;12935;50.782;6.074;2023-02-11T10:06:45;101405.22;;;5.83;100.00
24858;BME280;12935;50.782;6.074;2023-02-11T10:14:52;101410.28;;;6.07;100.00
24858;BME280;12935;50.782;6.074;2023-02-11T10:17:44;101397.81;;;6.06;100.00
24858;BME280;12935;50.782;6.074;2023-02-11T10:20:35;101406.72;;;5.89;100.00
24858;BME280;12935;50.782;6.074;2023-02-11T10:23:09;101400.28;;;5.85;100.00
24858;BME280;12935;50.782;6.074;2023-02-11T10:25:40;101405.66;;;5.68;100.00
24858;BME280;12935;50.782;6.074;2023-02-11T10:28:18;101408.72;;;5.75;100.00
24858;BME280;12935;50.782;6.074;2023-02-11T10:30:59;101420.66;;;6.05;100.00
24858;BME280;12935;50.782;6.074;2023-02-11T10:33:30;101413.94;;;6.02;100.00
24858;BME280;12935;50.782;6.074;2023-02-11T10:35:57;101415.44;;;5.86;100.00
24858;BME280;12935;50.782;6.074;2023-02-11T10:38:22;101417.25;;;5.99;100.00
24858;BME280;12935;50.782;6.074;2023-02-11T10:40:48;101413.78;;;6.16;100.00
24858;BME280;12935;50.782;6.074;2023-02-11T10:43:24;101414.13;;;6.31;100.00
24858;BME280;12935;50.782;6.074;2023-02-11T10:45:52;101414.31;;;6.26;100.00
24858;BME280;12935;50.782;6.074;2023-02-11T10:48:44;101417.16;;;6.21;100.00
24858;BME280;12935;50.782;6.074;2023-02-11T10:53:43;101426.25;;;6.17;100.00
24858;BME280;12935;50.782;6.074;2023-02-11T10:56:19;101426.78;;;6.27;100.00
24858;BME280;12935;50.782;6.074;2023-02-11T11:01:22;101425.13;;;6.09;100.00
24858;BME280;12935;50.782;6.074;2023-02-11T11:03:49;101415.59;;;6.29;100.00
24858;BME280;12935;50.782;6.074;2023-02-11T11:06:15;101410.16;;;6.29;100.00
24858;BME280;12935;50.782;6.074;2023-02-11T11:08:52;101407.72;;;6.10;100.00
24858;BME280;12935;50.782;6.074;2023-02-11T11:11:26;101421.47;;;6.14;100.00
24858;BME280;12935;50.782;6.074;2023-02-11T11:16:23;101428.38;;;6.28;100.00
24858;BME280;12935;50.782;6.074;2023-02-11T11:18:52;101413.78;;;6.16;100.00
24858;BME280;12935;50.782;6.074;2023-02-11T11:21:29;101415.56;;;6.20;100.00
24858;BME280;12935;50.782;6.074;2023-02-11T11:23:59;101417.97;;;6.13;100.00
24858;BME280;12935;50.782;6.074;2023-02-11T11:26:27;101417.13;;;6.04;100.00
24858;BME280;12935;50.782;6.074;2023-02-11T11:28:59;101423.41;;;6.30;100.00
24858;BME280;12935;50.782;6.074;2023-02-11T11:31:31;101420.69;;;6.22;100.00
24858;BME280;12935;50.782;6.074;2023-02-11T11:33:59;101420.22;;;6.28;100.00
24858;BME280;12935;50.782;6.074;2023-02-11T11:36:37;101422.25;;;6.14;100.00
24858;BME280;12935;50.782;6.074;2023-02-11T11:39:30;101415.59;;;6.29;100.00
24858;BME280;12935;50.782;6.074;2023-02-11T11:42:01;101409.16;;;6.16;100.00
24858;BME280;12935;50.782;6.074;2023-02-11T11:44:35;101398.97;;;6.13;100.00
24858;BME280;12935;50.782;6.074;2023-02-11T11:49:39;101401.19;;;6.11;100.00
24858;BME280;12935;50.782;6.074;2023-02-11T11:52:36;101411.75;;;6.21;100.00
24858;BME280;12935;50.782;6.074;2023-02-11T11:55:25;101418.28;;;6.12;100.00
24858;BME280;12935;50.782;6.074;2023-02-11T11:57:51;101404.97;;;6.02;100.00
24858;BME280;12935;50.782;6.074;2023-02-11T12:00:18;101406.91;;;6.01;100.00
24858;BME280;12935;50.782;6.074;2023-02-11T12:02:52;101410.91;;;6.04;100.00
24858;BME280;12935;50.782;6.074;2023-02-11T12:05:25;101404.03;;;6.06;100.00
24858;BME280;12935;50.782;6.074;2023-02-11T12:10:57;101395.72;;;5.94;100.00
24858;BME280;12935;50.782;6.074;2023-02-11T12:16:35;101408.06;;;6.26;100.00
24858;BME280;12935;50.782;6.074;2023-02-11T12:19:32;101410.00;;;6.25;100.00
24858;BME280;12935;50.782;6.074;2023-02-11T12:22:09;101416.38;;;6.21;100.00
24858;BME280;12935;50.782;6.074;2023-02-11T12:30:53;101411.72;;;6.30;100.00
24858;BME280;12935;50.782;6.074;2023-02-11T12:36:15;101407.28;;;6.34;100.00
24858;BME280;12935;50.782;6.074;2023-02-11T12:42:03;101417.19;;;6.56;100.00
24858;BME280;12935;50.782;6.074;2023-02-11T12:45:17;101419.91;;;6.56;100.00
24858;BME280;12935;50.782;6.074;2023-02-11T12:50:33;101412.25;;;6.41;100.00
24858;BME280;12935;50.782;6.074;2023-02-11T12:53:35;101409.19;;;6.33;100.00
24858;BME280;12935;50.782;6.074;2023-02-11T12:58:39;101410.47;;;6.27;100.00
24858;BME280;12935;50.782;6.074;2023-02-11T13:01:11;101415.25;;;6.22;100.00
24858;BME280;12935;50.782;6.074;2023-02-11T13:03:44;101408.84;;;6.18;100.00
24858;BME280;12935;50.782;6.074;2023-02-11T13:06:17;101406.66;;;6.28;100.00
24858;BME280;12935;50.782;6.074;2023-02-11T13:08:48;101403.13;;;6.37;100.00
24858;BME280;12935;50.782;6.074;2023-02-11T13:11:16;101412.41;;;6.44;100.00
24858;BME280;12935;50.782;6.074;2023-02-11T13:14:00;101397.88;;;6.57;100.00
24858;BME280;12935;50.782;6.074;2023-02-11T13:16:34;101405.38;;;6.60;100.00
24858;BME280;12935;50.782;6.074;2023-02-11T13:27:12;101411.31;;;6.45;100.00
24858;BME280;12935;50.782;6.074;2023-02-11T13:32:12;101408.72;;;6.40;100.00
24858;BME280;12935;50.782;6.074;2023-02-11T13:39:55;101400.56;;;6.49;100.00
24858;BME280;12935;50.782;6.074;2023-02-11T13:42:21;101397.88;;;6.57;100.00
24858;BME280;12935;50.782;6.074;2023-02-11T13:44:46;101391.00;;;6.60;100.00
24858;BME280;12935;50.782;6.074;2023-02-11T13:49:50;101394.50;;;6.69;100.00
24858;BME280;12935;50.782;6.074;2023-02-11T13:54:49;101388.75;;;6.71;100.00
24858;BME280;12935;50.782;6.074;2023-02-11T13:59:46;101379.66;;;6.58;100.00
24858;BME280;12935;50.782;6.074;2023-02-11T14:10:52;101381.25;;;6.67;100.00
24858;BME280;12935;50.782;6.074;2023-02-11T14:13:34;101384.94;;;6.54;100.00
24858;BME280;12935;50.782;6.074;2023-02-11T14:21:13;101389.22;;;6.81;100.00
24858;BME280;12935;50.782;6.074;2023-02-11T14:23:40;101390.81;;;6.82;100.00
24858;BME280;12935;50.782;6.074;2023-02-11T14:37:35;101386.03;;;6.88;100.00
24858;BME280;12935;50.782;6.074;2023-02-11T14:40:19;101386.47;;;6.98;100.00
24858;BME280;12935;50.782;6.074;2023-02-11T14:42:47;101390.66;;;6.87;100.00
24858;BME280;12935;50.782;6.074;2023-02-11T14:45:19;101398.97;;;6.91;100.00
24858;BME280;12935;50.782;6.074;2023-02-11T14:47:54;101396.25;;;6.82;100.00
24858;BME280;12935;50.782;6.074;2023-02-11T14:50:31;101398.16;;;6.82;100.00
24858;BME280;12935;50.782;6.074;2023-02-11T14:52:57;101397.50;;;6.93;100.00
24858;BME280;12935;50.782;6.074;2023-02-11T14:55:31;101397.53;;;6.85;100.00
24858;BME280;12935;50.782;6.074;2023-02-11T14:58:11;101400.91;;;6.73;100.00
24858;BME280;12935;50.782;6.074;2023-02-11T15:01:22;101403.13;;;6.71;100.00
24858;BME280;12935;50.782;6.074;2023-02-11T15:03:39;101406.16;;;6.69;100.00
24858;BME280;12935;50.782;6.074;2023-02-11T15:06:16;101413.19;;;6.88;100.00
24858;BME280;12935;50.782;6.074;2023-02-11T15:08:50;101408.88;;;6.87;100.00
24858;BME280;12935;50.782;6.074;2023-02-11T15:11:19;101406.16;;;6.87;100.00
24858;BME280;12935;50.782;6.074;2023-02-11T15:13:45;101414.94;;;6.92;100.00